Masz pytanie?

GDDKiA Wrocław :: Generalna Dyrekcja Dróg Krajowych i...

Znajdują się Państwo na stronie GDDKiA.gov.pl. Poniżej prezentujemy instrukcję instalacji darmowego czytnika ekranu wykorzystującego syntezator oparty na...www.gddkia.gov.pl/pl/54/gddkia-wroclaw

gddkia.gov.pl - Serwis informacyjny

Znajdują się Państwo na stronie GDDKiA.gov.pl. Poniżej prezentujemy instrukcję instalacji darmowego czytnika ekranu wykorzystującego syntezator oparty na...www.gddkia.gov.pl/

Kamery w GDDKiA Wrocław - traxelektronik.pl

Bielany Wrocławskie (1) kierunek: Wrocław Rejon Wrocław droga: 5, 370.408 km Szczegóływww.traxelektronik.pl/pogoda/kamery/kamery_zb.php?sort=0&rejid=11

Kamery na drogach Polski - TRAX elektronik

Menu 2: Menu2a: Menu 3www.traxelektronik.pl/pogoda/kamery/index.php

GDDKIA SZCZECIN PRZETARGI - najnowsze wiadomości...

GDDKIA SZCZECIN PRZETARGI: najświeższe informacje, zdjęcia, video o GDDKIA SZCZECIN PRZETARGI; Budowa S6 spowoduje wakacyjne korki? Ciężki sprzęt …info.wyborcza.biz/szukaj/gospodarka/gddkia+szczecin+przetargi

Pogoda we Wrocławiu - InfoMeteo.pl

Depesza METAR lotniska Wrocław-Strachowice METAR = EPWR 240100Z 05003KT CAVOK 16/15 Q1019 STACJA..... EPWR - Wrocław-Strachowice (WRO) POMIAR.....wroclaw.infometeo.pl/

Obwodnica Kościerzyny - Obwodnica Kościerzyny

GDDKiA Oddział w Gdańsku ul. Subisława 5, 80-354 Gdańsk tel. 58 511 24 00. GDDKiA biuro regionalne w Kościerzynie ul. Przemysłowa 3, 83-400 Kościerzynaobwodnicakoscierzyny.info.pl/